Terminal Aerodrome Forecast
Issued by NWS Tuscon, AZ

Home | Current Version | Previous Version | Text Only | Print | Product List | Glossary On
Versions: 1 2 3 4 5 6 7 8 9 10 11 12 13 14 15 16 17 18
000
FTUS45 KTWC 301120
TAFTUS
TAF
KTUS 301120Z 3012/3112 14008KT P6SM SKC
     FM301700 19010KT P6SM SKC
     FM302000 24015G25KT P6SM SKC
     FM310200 19018G28KT P6SM SCT100=

USA.gov is the U.S. government's official web portal to all federal, state and local government web resources and services.